createdAt,value
2022-08-05T00:00:16.023Z,9.80
2022-08-05T00:02:51.767Z,9.93
2022-08-05T00:06:02.523Z,10.15
2022-08-05T00:08:20.035Z,9.70
2022-08-05T00:10:57.088Z,10.05
2022-08-05T00:13:38.238Z,10.73
2022-08-05T00:16:08.964Z,11.90
2022-08-05T00:18:38.040Z,13.13
2022-08-05T00:21:06.470Z,14.82
2022-08-05T00:23:46.250Z,14.75
2022-08-05T00:26:14.700Z,16.58
2022-08-05T00:28:45.874Z,16.33
2022-08-05T00:31:13.317Z,17.33
2022-08-05T00:34:55.423Z,15.23
2022-08-05T00:37:12.996Z,16.67
2022-08-05T00:39:14.238Z,15.32
2022-08-05T00:41:52.155Z,13.95
2022-08-05T00:44:30.733Z,16.38
2022-08-05T00:47:01.970Z,17.85
2022-08-05T00:49:32.705Z,17.30
2022-08-05T00:52:00.169Z,19.08
2022-08-05T00:54:28.090Z,16.65
2022-08-05T00:56:57.003Z,16.20
2022-08-05T00:59:23.743Z,16.08
2022-08-05T01:01:51.236Z,15.75
2022-08-05T01:04:19.890Z,14.52
2022-08-05T01:06:51.692Z,15.55
2022-08-05T01:09:20.128Z,15.25
2022-08-05T01:11:50.827Z,12.13
2022-08-05T01:14:32.487Z,14.50
2022-08-05T01:17:08.778Z,15.43
2022-08-05T01:20:01.788Z,15.52
2022-08-05T01:23:14.558Z,15.20
2022-08-05T01:25:53.233Z,16.00
2022-08-05T01:28:26.578Z,16.33
2022-08-05T01:31:09.495Z,18.40
2022-08-05T01:33:53.579Z,17.30
2022-08-05T01:36:28.177Z,18.63
2022-08-05T01:38:56.175Z,18.20
2022-08-05T01:41:25.557Z,18.35
2022-08-05T01:43:54.036Z,18.77
2022-08-05T01:46:42.099Z,17.77
2022-08-05T01:49:23.131Z,18.15
2022-08-05T01:51:56.166Z,16.95
2022-08-05T01:54:29.186Z,17.90
2022-08-05T01:58:10.382Z,17.35
2022-08-05T01:59:49.203Z,18.73
2022-08-05T02:02:17.713Z,18.08
2022-08-05T02:04:49.504Z,17.58
2022-08-05T02:07:21.961Z,18.17
2022-08-05T02:09:50.974Z,17.67
2022-08-05T02:12:27.665Z,17.27
2022-08-05T02:15:06.940Z,15.55
2022-08-05T02:18:31.604Z,17.33
2022-08-05T02:20:46.895Z,15.35
2022-08-05T02:23:17.629Z,17.25
2022-08-05T02:25:49.196Z,18.70
2022-08-05T02:28:29.338Z,17.95
2022-08-05T02:31:01.074Z,17.75
2022-08-05T02:33:38.658Z,17.15
2022-08-05T02:36:13.407Z,20.02
2022-08-05T02:38:53.140Z,18.60
2022-08-05T02:41:22.925Z,17.83
2022-08-05T02:44:06.582Z,20.40
2022-08-05T02:46:53.463Z,20.05
2022-08-05T02:49:37.006Z,21.05
2022-08-05T02:52:09.970Z,20.23
2022-08-05T02:54:41.297Z,20.02
2022-08-05T02:58:11.264Z,20.92
2022-08-05T02:59:59.467Z,20.83
2022-08-05T03:02:33.048Z,20.00
2022-08-05T03:05:01.161Z,18.80
2022-08-05T03:08:01.183Z,22.20
2022-08-05T03:10:22.112Z,20.20
2022-08-05T03:12:53.114Z,22.13
2022-08-05T03:15:20.833Z,25.30
2022-08-05T03:17:50.510Z,23.95
2022-08-05T03:20:21.051Z,23.65
2022-08-05T03:22:50.025Z,26.08
2022-08-05T03:26:03.911Z,27.95
2022-08-05T03:28:08.722Z,23.25
2022-08-05T03:30:38.302Z,23.60
2022-08-05T03:33:08.307Z,21.55
2022-08-05T03:35:41.269Z,19.65
2022-08-05T03:38:12.668Z,17.52
2022-08-05T03:40:45.127Z,14.82
2022-08-05T03:43:59.310Z,12.30
2022-08-05T03:46:01.858Z,11.00
2022-08-05T03:48:29.742Z,10.45
2022-08-05T03:52:49.353Z,9.55
2022-08-05T03:56:00.988Z,9.75
2022-08-05T03:57:15.957Z,9.52
2022-08-05T03:59:57.083Z,10.45
2022-08-05T04:02:38.344Z,9.52
2022-08-05T04:05:13.076Z,10.00
2022-08-05T04:07:58.296Z,10.40
2022-08-05T04:10:30.848Z,10.18
2022-08-05T04:13:13.086Z,8.77
2022-08-05T04:15:52.799Z,9.25
2022-08-05T04:18:27.203Z,10.13
2022-08-05T04:20:55.511Z,11.25
2022-08-05T04:24:04.655Z,11.57
2022-08-05T04:26:13.694Z,12.13
2022-08-05T04:28:40.440Z,10.93
2022-08-05T04:31:18.037Z,11.73
2022-08-05T04:34:17.482Z,10.40
2022-08-05T04:36:46.241Z,12.50
2022-08-05T04:39:16.916Z,11.73
2022-08-05T04:41:44.925Z,11.65
2022-08-05T04:44:12.830Z,10.13
2022-08-05T04:46:40.105Z,11.95
2022-08-05T04:49:14.390Z,9.75
2022-08-05T04:51:42.815Z,10.90
2022-08-05T04:54:10.118Z,9.65
2022-08-05T04:56:38.721Z,10.52
2022-08-05T04:59:21.755Z,9.95
2022-08-05T05:02:35.012Z,9.85
2022-08-05T05:04:38.669Z,9.52
2022-08-05T05:07:15.920Z,10.48
2022-08-05T05:09:42.746Z,11.02
2022-08-05T05:12:11.524Z,11.45
2022-08-05T05:14:38.494Z,11.20
2022-08-05T05:17:22.874Z,10.90
2022-08-05T05:19:55.053Z,11.48
2022-08-05T05:22:26.450Z,10.90
2022-08-05T05:24:59.084Z,10.23
2022-08-05T05:27:45.067Z,11.13
2022-08-05T05:30:15.736Z,10.88
2022-08-05T05:33:00.131Z,11.07
2022-08-05T05:35:31.607Z,10.75
2022-08-05T05:38:06.415Z,10.07
2022-08-05T05:40:36.311Z,10.27
2022-08-05T05:43:03.315Z,8.07
2022-08-05T05:45:30.179Z,7.03
2022-08-05T05:48:06.246Z,6.70
2022-08-05T05:50:43.888Z,7.90
2022-08-05T05:53:22.308Z,6.65
2022-08-05T05:55:51.769Z,6.18
2022-08-05T05:58:31.395Z,7.20
2022-08-05T06:01:12.106Z,5.68
2022-08-05T06:04:01.226Z,6.43
2022-08-05T06:06:33.077Z,6.60
2022-08-05T06:09:01.385Z,6.88
2022-08-05T06:11:30.483Z,6.90
2022-08-05T06:13:57.308Z,6.75
2022-08-05T06:16:30.436Z,5.90
2022-08-05T06:19:01.126Z,5.70
2022-08-05T06:21:35.945Z,5.57
2022-08-05T06:24:11.476Z,5.70
2022-08-05T06:26:52.378Z,5.70
2022-08-05T06:29:23.773Z,5.50
2022-08-05T06:32:21.290Z,5.50
2022-08-05T06:34:56.192Z,5.38
2022-08-05T06:37:56.480Z,5.07
2022-08-05T06:40:12.792Z,5.30
2022-08-05T06:42:40.925Z,4.85
2022-08-05T06:45:09.180Z,4.57
2022-08-05T06:48:36.626Z,4.78
2022-08-05T06:50:23.756Z,4.10
2022-08-05T06:52:58.492Z,4.70
2022-08-05T06:55:25.731Z,4.43
2022-08-05T06:58:03.446Z,4.30
2022-08-05T07:00:41.027Z,4.43
2022-08-05T07:03:09.640Z,4.45
2022-08-05T07:05:37.848Z,4.40
2022-08-05T07:08:10.704Z,4.78
2022-08-05T07:10:38.615Z,5.28
2022-08-05T07:13:39.529Z,5.20
2022-08-05T07:17:56.675Z,4.75
2022-08-05T07:19:44.325Z,4.57
2022-08-05T07:22:07.113Z,4.50
2022-08-05T07:24:35.179Z,4.65
2022-08-05T07:27:10.704Z,4.63
2022-08-05T07:30:27.874Z,4.78
2022-08-05T07:32:26.184Z,4.63
2022-08-05T07:34:57.966Z,5.00
2022-08-05T07:37:35.921Z,4.40
2022-08-05T07:40:26.951Z,4.57
2022-08-05T07:42:52.311Z,3.92
2022-08-05T07:45:19.144Z,4.72
2022-08-05T07:48:05.864Z,4.00
2022-08-05T07:50:35.444Z,4.13
2022-08-05T07:53:03.281Z,3.97
2022-08-05T07:55:44.633Z,4.45
2022-08-05T07:58:57.403Z,4.13
2022-08-05T08:01:06.122Z,4.03
2022-08-05T08:03:44.645Z,4.40
2022-08-05T08:06:11.633Z,4.40
2022-08-05T08:08:38.215Z,4.38
2022-08-05T08:11:05.291Z,4.40
2022-08-05T08:13:49.277Z,4.53
2022-08-05T08:16:49.794Z,4.68
2022-08-05T08:19:10.044Z,4.70
2022-08-05T08:21:56.691Z,4.90
2022-08-05T08:24:50.937Z,4.55
2022-08-05T08:27:11.006Z,5.13
2022-08-05T08:30:05.097Z,4.85
2022-08-05T08:32:29.831Z,5.10
2022-08-05T08:34:56.444Z,5.00
2022-08-05T08:37:27.982Z,5.22
2022-08-05T08:39:55.115Z,5.38
2022-08-05T08:42:34.216Z,5.45
2022-08-05T08:45:23.521Z,5.30
2022-08-05T08:48:11.316Z,5.50
2022-08-05T08:51:03.411Z,5.32
2022-08-05T08:53:36.823Z,5.20
2022-08-05T08:56:06.283Z,5.60
2022-08-05T08:58:43.081Z,5.70
2022-08-05T09:01:16.694Z,5.30
2022-08-05T09:03:52.910Z,5.63
2022-08-05T09:06:24.150Z,5.40
2022-08-05T09:08:55.529Z,5.30
2022-08-05T09:11:51.448Z,5.55
2022-08-05T09:14:56.346Z,5.18
2022-08-05T09:17:09.711Z,5.47
2022-08-05T09:20:01.615Z,5.45
2022-08-05T09:22:31.648Z,5.32
2022-08-05T09:25:13.915Z,5.55
2022-08-05T09:28:05.940Z,5.53
2022-08-05T09:30:34.725Z,5.45
2022-08-05T09:33:02.504Z,5.82
2022-08-05T09:35:32.748Z,5.85
2022-08-05T09:38:16.513Z,5.40
2022-08-05T09:40:52.501Z,5.55
2022-08-05T09:43:40.514Z,5.57
2022-08-05T09:46:28.304Z,5.95
2022-08-05T09:49:08.260Z,6.30
2022-08-05T09:51:49.540Z,6.45
2022-08-05T09:54:29.566Z,6.32
2022-08-05T09:56:57.626Z,5.60
2022-08-05T09:59:28.129Z,5.85
2022-08-05T10:01:57.767Z,5.78
2022-08-05T10:04:36.055Z,5.88
2022-08-05T10:07:20.082Z,5.28
2022-08-05T10:10:13.938Z,5.50
2022-08-05T10:12:51.482Z,5.90
2022-08-05T10:15:37.628Z,5.72
2022-08-05T10:18:12.108Z,5.65
2022-08-05T10:20:49.018Z,6.32
2022-08-05T10:23:50.928Z,5.93
2022-08-05T10:26:13.991Z,6.15
2022-08-05T10:28:45.519Z,5.32
2022-08-05T10:32:48.002Z,5.80
2022-08-05T10:34:04.257Z,7.90
2022-08-05T10:36:39.493Z,8.60
2022-08-05T10:39:24.283Z,10.05
2022-08-05T10:42:13.404Z,13.02
2022-08-05T10:44:45.143Z,14.82
2022-08-05T10:47:27.004Z,15.90
2022-08-05T10:50:20.587Z,14.88
2022-08-05T10:52:58.767Z,17.40
2022-08-05T10:55:27.083Z,15.32
2022-08-05T10:58:08.957Z,14.20
2022-08-05T11:00:42.059Z,14.70
2022-08-05T11:03:23.437Z,14.73
2022-08-05T11:06:15.178Z,14.90
2022-08-05T11:09:17.831Z,15.75
2022-08-05T11:11:53.201Z,13.65
2022-08-05T11:15:01.183Z,13.50
2022-08-05T11:18:09.448Z,13.48
2022-08-05T11:20:39.259Z,13.55
2022-08-05T11:23:49.915Z,12.75
2022-08-05T11:26:29.040Z,12.52
2022-08-05T11:29:11.514Z,12.90
2022-08-05T11:31:58.022Z,11.57
2022-08-05T11:34:52.125Z,12.45
2022-08-05T11:38:29.525Z,10.82
2022-08-05T11:41:36.820Z,11.32
2022-08-05T11:44:08.290Z,11.32
2022-08-05T11:46:58.326Z,11.63
2022-08-05T11:49:26.049Z,10.90
2022-08-05T11:51:57.612Z,10.00
2022-08-05T11:54:35.072Z,13.38
2022-08-05T11:57:08.751Z,14.18
2022-08-05T11:59:50.936Z,15.27
2022-08-05T12:02:30.952Z,12.63
2022-08-05T12:05:07.931Z,13.10
2022-08-05T12:08:08.384Z,14.20
2022-08-05T12:10:43.690Z,12.90
2022-08-05T12:13:27.970Z,12.73
2022-08-05T12:16:18.146Z,12.52
2022-08-05T12:18:52.715Z,12.75
2022-08-05T12:21:32.165Z,13.73
2022-08-05T12:24:06.984Z,12.88
2022-08-05T12:26:38.642Z,14.50
2022-08-05T12:29:09.418Z,14.07
2022-08-05T12:31:45.864Z,15.02
2022-08-05T12:34:21.269Z,15.30
2022-08-05T12:36:52.309Z,15.85
2022-08-05T12:39:19.223Z,15.07
2022-08-05T12:41:46.201Z,16.90
2022-08-05T12:44:28.711Z,17.60
2022-08-05T12:47:00.248Z,19.30
2022-08-05T12:50:04.596Z,20.30
2022-08-05T12:52:32.434Z,25.95
2022-08-05T12:55:18.150Z,28.38
2022-08-05T12:58:49.211Z,29.60
2022-08-05T13:02:03.285Z,28.38
2022-08-05T13:03:32.296Z,29.02
2022-08-05T13:06:01.099Z,29.75
2022-08-05T13:08:32.344Z,27.73
2022-08-05T13:11:02.454Z,28.13
2022-08-05T13:14:06.602Z,27.48
2022-08-05T13:16:20.225Z,26.38
2022-08-05T13:18:58.753Z,27.55
2022-08-05T13:21:28.290Z,27.20
2022-08-05T13:24:05.616Z,19.35
2022-08-05T13:26:32.397Z,19.58
2022-08-05T13:28:59.453Z,17.75
2022-08-05T13:32:02.902Z,16.42
2022-08-05T13:34:21.194Z,15.40
2022-08-05T13:36:50.359Z,14.48
2022-08-05T13:39:24.747Z,15.75
2022-08-05T13:42:03.749Z,14.65
2022-08-05T13:44:30.390Z,13.77
2022-08-05T13:47:04.617Z,13.98
2022-08-05T13:49:35.315Z,12.73
2022-08-05T13:52:12.640Z,13.38
2022-08-05T13:54:40.118Z,11.88
2022-08-05T13:57:08.023Z,11.13
2022-08-05T13:59:37.637Z,8.50
2022-08-05T14:02:26.673Z,7.75
2022-08-05T14:05:15.338Z,7.97
2022-08-05T14:07:59.945Z,6.18
2022-08-05T14:10:32.433Z,5.47
2022-08-05T14:12:59.823Z,5.40
2022-08-05T14:16:09.128Z,5.18
2022-08-05T14:18:18.567Z,5.07
2022-08-05T14:20:54.435Z,4.68
2022-08-05T14:23:24.902Z,5.15
2022-08-05T14:25:58.436Z,5.35
2022-08-05T14:28:29.528Z,5.40
2022-08-05T14:30:58.001Z,5.30
2022-08-05T14:33:25.092Z,5.40
2022-08-05T14:35:54.271Z,5.47
2022-08-05T14:38:27.728Z,6.00
2022-08-05T14:41:00.700Z,5.38
2022-08-05T14:43:59.084Z,5.53
2022-08-05T14:46:13.955Z,4.70
2022-08-05T14:48:40.886Z,4.82
2022-08-05T14:51:08.538Z,5.18
2022-08-05T14:53:44.358Z,5.00
2022-08-05T14:56:12.003Z,5.10
2022-08-05T14:58:47.528Z,4.25
2022-08-05T15:01:24.331Z,4.70
2022-08-05T15:04:11.370Z,4.53
2022-08-05T15:06:38.979Z,4.40
2022-08-05T15:09:07.671Z,4.47
2022-08-05T15:11:51.557Z,4.30
2022-08-05T15:14:35.837Z,3.90
2022-08-05T15:17:05.090Z,3.88
2022-08-05T15:19:36.784Z,3.70
2022-08-05T15:22:05.950Z,3.70
2022-08-05T15:24:32.742Z,4.22
2022-08-05T15:26:59.357Z,4.03
2022-08-05T15:29:29.884Z,4.10
2022-08-05T15:31:57.531Z,4.13
2022-08-05T15:34:32.784Z,4.63
2022-08-05T15:37:06.914Z,3.85
2022-08-05T15:40:58.491Z,3.90
2022-08-05T15:42:54.714Z,3.60
2022-08-05T15:45:14.884Z,2.60
2022-08-05T15:47:42.934Z,2.70
2022-08-05T15:50:15.086Z,2.20
2022-08-05T15:52:53.715Z,2.60
2022-08-05T15:55:25.148Z,2.50
2022-08-05T15:58:09.191Z,2.50
2022-08-05T16:00:50.990Z,2.20
2022-08-05T16:03:30.651Z,1.85
2022-08-05T16:05:59.500Z,2.10
2022-08-05T16:08:29.289Z,2.40
2022-08-05T16:10:57.996Z,2.45
2022-08-05T16:13:31.906Z,2.10
2022-08-05T16:16:01.790Z,2.10
2022-08-05T16:18:30.875Z,2.10
2022-08-05T16:20:58.584Z,2.20
2022-08-05T16:23:28.408Z,2.47
2022-08-05T16:26:14.984Z,2.60
2022-08-05T16:28:42.214Z,2.90
2022-08-05T16:31:10.537Z,3.40
2022-08-05T16:33:41.576Z,3.28
2022-08-05T16:36:09.060Z,3.10
2022-08-05T16:38:35.770Z,3.20
2022-08-05T16:42:12.805Z,3.92
2022-08-05T16:43:49.442Z,3.78
2022-08-05T16:46:24.324Z,3.45
2022-08-05T16:48:52.048Z,3.50
2022-08-05T16:51:19.463Z,3.70
2022-08-05T16:54:05.422Z,3.75
2022-08-05T16:56:36.500Z,3.95
2022-08-05T16:59:10.159Z,3.40
2022-08-05T17:01:52.886Z,3.30
2022-08-05T17:04:23.857Z,4.10
2022-08-05T17:06:55.301Z,3.65
2022-08-05T17:09:23.143Z,3.70
2022-08-05T17:11:54.675Z,3.80
2022-08-05T17:14:34.137Z,3.75
2022-08-05T17:17:14.229Z,4.05
2022-08-05T17:19:43.845Z,4.18
2022-08-05T17:22:24.735Z,3.88
2022-08-05T17:24:57.981Z,4.10
2022-08-05T17:27:27.628Z,3.78
2022-08-05T17:30:02.563Z,4.13
2022-08-05T17:32:30.147Z,4.53
2022-08-05T17:35:00.500Z,4.18
2022-08-05T17:37:41.584Z,4.78
2022-08-05T17:40:15.025Z,4.30
2022-08-05T17:42:49.759Z,4.72
2022-08-05T17:45:24.814Z,4.65
2022-08-05T17:47:55.533Z,4.60
2022-08-05T17:50:28.204Z,4.72
2022-08-05T17:53:00.637Z,4.90
2022-08-05T17:55:37.825Z,4.47
2022-08-05T17:58:09.334Z,4.20
2022-08-05T18:00:36.975Z,3.97
2022-08-05T18:03:11.635Z,3.88
2022-08-05T18:05:53.739Z,3.55
2022-08-05T18:08:20.981Z,3.17
2022-08-05T18:10:47.674Z,3.67
2022-08-05T18:13:15.277Z,3.20
2022-08-05T18:15:42.606Z,3.47
2022-08-05T18:18:11.594Z,3.22
2022-08-05T18:20:38.779Z,3.35
2022-08-05T18:23:09.191Z,3.00
2022-08-05T18:25:39.480Z,2.95
2022-08-05T18:28:09.720Z,3.00
2022-08-05T18:30:39.166Z,3.10
2022-08-05T18:33:08.447Z,3.00
2022-08-05T18:36:01.126Z,3.00
2022-08-05T18:38:25.794Z,3.00
2022-08-05T18:41:58.798Z,3.00
2022-08-05T18:43:43.042Z,3.30
2022-08-05T18:46:20.239Z,2.88
2022-08-05T18:48:53.872Z,3.00
2022-08-05T18:52:06.917Z,3.00
2022-08-05T18:54:27.514Z,2.83
2022-08-05T18:56:55.128Z,3.00
2022-08-05T18:59:43.238Z,2.60
2022-08-05T19:02:11.198Z,2.42
2022-08-05T19:05:01.133Z,2.72
2022-08-05T19:07:25.822Z,2.53
2022-08-05T19:09:56.995Z,2.80
2022-08-05T19:12:24.146Z,2.85
2022-08-05T19:15:00.513Z,2.75
2022-08-05T19:17:58.293Z,3.17
2022-08-05T19:20:15.937Z,2.97
2022-08-05T19:22:44.137Z,2.78
2022-08-05T19:25:11.013Z,3.13
2022-08-05T19:27:56.119Z,2.80
2022-08-05T19:30:22.865Z,3.15
2022-08-05T19:32:50.483Z,3.10
2022-08-05T19:35:17.123Z,3.30
2022-08-05T19:38:06.550Z,3.00
2022-08-05T19:40:34.793Z,3.22
2022-08-05T19:43:05.716Z,2.67
2022-08-05T19:45:36.585Z,3.10
2022-08-05T19:48:05.372Z,2.45
2022-08-05T19:50:32.597Z,2.83
2022-08-05T19:53:10.687Z,2.83
2022-08-05T19:56:15.703Z,2.78
2022-08-05T19:58:29.465Z,2.80
2022-08-05T20:00:56.912Z,2.35
2022-08-05T20:03:24.489Z,2.70
2022-08-05T20:05:56.649Z,2.20
2022-08-05T20:08:24.382Z,2.47
2022-08-05T20:10:52.385Z,2.30
2022-08-05T20:13:30.238Z,1.98
2022-08-05T20:16:06.345Z,2.03
2022-08-05T20:18:35.912Z,2.08
2022-08-05T20:21:05.183Z,1.88
2022-08-05T20:23:39.874Z,2.45
2022-08-05T20:26:17.800Z,2.10
2022-08-05T20:28:53.996Z,2.00
2022-08-05T20:31:37.023Z,1.90
2022-08-05T20:34:12.521Z,2.13
2022-08-05T20:36:39.263Z,2.33
2022-08-05T20:39:12.875Z,2.30
2022-08-05T20:41:44.486Z,2.38
2022-08-05T20:44:29.231Z,2.03
2022-08-05T20:47:03.261Z,1.88
2022-08-05T20:49:33.314Z,1.90
2022-08-05T20:52:07.257Z,2.00
2022-08-05T20:54:42.770Z,2.13
2022-08-05T20:57:24.734Z,1.90
2022-08-05T21:00:40.310Z,2.05
2022-08-05T21:03:01.298Z,1.90
2022-08-05T21:05:28.586Z,2.28
2022-08-05T21:08:15.082Z,2.08
2022-08-05T21:10:49.098Z,2.47
2022-08-05T21:13:25.963Z,2.20
2022-08-05T21:16:03.786Z,2.05
2022-08-05T21:18:30.788Z,2.33
2022-08-05T21:20:57.540Z,2.13
2022-08-05T21:23:24.759Z,2.10
2022-08-05T21:25:51.679Z,1.92
2022-08-05T21:28:23.937Z,2.55
2022-08-05T21:30:50.772Z,2.40
2022-08-05T21:33:22.598Z,2.60
2022-08-05T21:35:58.365Z,2.22
2022-08-05T21:38:26.655Z,2.00
2022-08-05T21:40:53.304Z,1.77
2022-08-05T21:43:24.549Z,2.03
2022-08-05T21:45:57.875Z,2.00
2022-08-05T21:48:28.454Z,2.05
2022-08-05T21:50:55.598Z,2.10
2022-08-05T21:53:27.360Z,2.10
2022-08-05T21:56:05.041Z,2.25
2022-08-05T21:58:36.922Z,2.00
2022-08-05T22:01:10.619Z,2.10
2022-08-05T22:03:52.379Z,2.22
2022-08-05T22:06:22.595Z,2.15
2022-08-05T22:08:52.031Z,1.90
2022-08-05T22:11:19.572Z,2.40
2022-08-05T22:14:34.117Z,2.08
2022-08-05T22:16:53.041Z,2.47
2022-08-05T22:20:02.227Z,2.00
2022-08-05T22:22:10.257Z,2.17
2022-08-05T22:24:55.890Z,2.00
2022-08-05T22:28:09.062Z,2.10
2022-08-05T22:30:34.909Z,2.30
2022-08-05T22:33:03.493Z,2.10
2022-08-05T22:35:31.040Z,2.00
2022-08-05T22:38:14.990Z,2.00
2022-08-05T22:40:42.030Z,1.92
2022-08-05T22:43:16.309Z,2.10
2022-08-05T22:46:08.832Z,2.00
2022-08-05T22:48:40.003Z,2.30
2022-08-05T22:51:07.864Z,2.50
2022-08-05T22:53:35.869Z,2.35
2022-08-05T22:56:04.026Z,2.00
2022-08-05T22:58:36.627Z,2.30
2022-08-05T23:01:03.244Z,1.80
2022-08-05T23:03:59.039Z,2.20
2022-08-05T23:06:19.815Z,2.10
2022-08-05T23:08:53.007Z,1.80
2022-08-05T23:11:19.791Z,2.05
2022-08-05T23:13:51.515Z,2.13
2022-08-05T23:16:38.578Z,1.70
2022-08-05T23:19:10.726Z,2.13
2022-08-05T23:21:52.385Z,2.20
2022-08-05T23:24:21.048Z,1.85
2022-08-05T23:26:49.075Z,1.98
2022-08-05T23:29:16.547Z,1.88
2022-08-05T23:31:46.064Z,1.83
2022-08-05T23:34:16.149Z,1.90
2022-08-05T23:36:51.434Z,1.90
2022-08-05T23:39:31.920Z,1.90
2022-08-05T23:42:00.032Z,2.03
2022-08-05T23:44:27.938Z,2.20
2022-08-05T23:46:59.082Z,1.90
2022-08-05T23:49:36.037Z,2.05
2022-08-05T23:52:22.038Z,1.77
2022-08-05T23:54:56.823Z,2.10
2022-08-05T23:57:28.083Z,2.22
